Jayawijaya B733 at Jayapura on Oct 22nd 2021, overran runway on landing

Last Update: October 22, 2021 / 16:02:30 GMT/Zulu time

Bookmark this article
Incident Facts

Date of incident
Oct 22, 2021

Classification
Incident

Aircraft Registration
PK-JRB

Aircraft Type
Boeing 737-300

ICAO Type Designator
B733

Airport ICAO Code
WAJJ

A Jayawijaya Dirgantara Boeing 737-300 freighter, registration PK-JRB performing a freight flight from Wamena to Jayapura (Indonesia), landed on Jayapura's runway 30 at about 09:30L (00:30Z) but overran the end of the runway and skidded sideways by about 50 meters/170 feet. There were no injuries, the aircraft sustained minor damage.

The aircraft was towed back onto paved surface and the runway returned to service at about 12:50L.

Related NOTAMs:
B1982/21 NOTAMN
Q) WAAF/QMRCM/IV/NBO/A/000/999/0234S14031E005
A) WAJJ B) 2110220209 C) 2110220400
E) RWY 12/30 DISPLACED ALONG 150M FM BEGINNING RWY 12 DUE TO BLOCKED BY ACFT
DECLARED DISTANCE AS FLW:
RWY TORA TODA ASDA LDA
12 2850 3060 2910 2850
30 2850 2850 2850 2850
RMK: ALL ACFT SHALL OBSERVE BEFORE TKOF OR LDG
B1981/21 NOTAMN
Q) WAAF/QMRCM/IV/NBO/A/000/999/0234S14031E005
A) WAJJ B) 2110220119 C) 2110220200
E) RWY 12/30 DISPLACED ALONG 150M FM BEGINNING RWY 12 DUE TO BLOCKED BY ACFT
DECLARED DISTANCE AS FLW:
RWY TORA TODA ASDA LDA
12 2850 3060 2910 2850
30 2850 2850 2850 2850
RMK: ALL ACFT SHALL OBSERVE BEFORE TKOF OR LDG

Metars:
WAJJ 220200Z 12003KT 9000 -RA SCT012 27/23 Q1012 BECMG NSW=
WAJJ 220130Z 11002KT 9999 SCT012 27/23 Q1012 NOSIG=
WAJJ 220100Z 15004KT 9999 SCT012 26/23 Q1013 NOSIG=
WAJJ 220030Z 14003KT 8000 -RA SCT012 26/23 Q1013 NOSIG=
WAJJ 220000Z 00000KT 7000 -RA SCT011 25/22 Q1013 NOSIG=
WAJJ 212330Z 17003KT 5000 RA SCT011 25/22 Q1013 NOSIG=
WAJJ 212300Z 17002KT 5000 RA SCT011 25/23 Q1013 NOSIG=
WAJJ 212230Z 15002KT 9999 SCT011 25/23 Q1013 NOSIG=
WAJJ 212200Z 16004KT 9999 SCT012 25/23 Q1012 NOSIG=
WAJJ 212130Z 13002KT 9999 SCT012 25/23 Q1012 NOSIG=
WAJJ 212100Z 00000KT 9999 SCT012 24/23 Q1011 NOSIG=
WAJJ 212030Z 00000KT 9999 SCT012 24/22 Q1011 NOSIG=
WAJJ 212000Z 35002KT 9999 SCT012 24/22 Q1010 NOSIG=
Incident Facts

Date of incident
Oct 22, 2021

Classification
Incident

Aircraft Registration
PK-JRB

Aircraft Type
Boeing 737-300

ICAO Type Designator
B733

Airport ICAO Code
WAJJ

This article is published under license from Avherald.com. © of text by Avherald.com.
Article source

You can read 2 more free articles without a subscription.

Subscribe now and continue reading without any limits!

Are you a subscriber? Login
Subscribe

Read unlimited articles and receive our daily update briefing. Gain better insights into what is happening in commercial aviation safety.

Free newsletter

Want to know more and stay ahead? Get our free weekly newsletter and join 5377 existing subscribers.

By subscribing, you accept our terms and conditions and confirm that you've read our privacy policy.

Send tip

Support AeroInside by sending a small tip amount.

Related articles

Newest articles

Subscribe today

Are you researching aviation incidents? Get access to AeroInside Insights, unlimited read access and receive the daily newsletter.

Pick your plan and subscribe

Partner

Blockaviation logo

A new way to document and demonstrate airworthiness compliance and aircraft value. Find out more.

Virtual Speech logo

ELITE Simulation Solutions is a leading global provider of Flight Simulation Training Devices, IFR training software as well as flight controls and related services. Find out more.

Get updates

Never miss an article from AeroInside. Subscribe to our free weekly newsletter and join 5377 existing subscribers.

By subscribing, you accept our terms and conditions and that you've read our privacy policy.

AeroInside Blog
Popular aircraft
Airbus A320
Boeing 737-800
Boeing 737-800 MAX
Popular airlines
American Airlines
United
Delta
Air Canada
Lufthansa
British Airways